createdAt,value
2023-02-02T00:01:49.829Z,2.25
2023-02-02T00:04:20.781Z,2.00
2023-02-02T00:06:49.685Z,2.33
2023-02-02T00:09:21.405Z,2.63
2023-02-02T00:11:51.098Z,2.40
2023-02-02T00:14:19.850Z,2.10
2023-02-02T00:16:49.777Z,1.80
2023-02-02T00:19:21.286Z,2.03
2023-02-02T00:21:50.220Z,2.47
2023-02-02T00:24:20.867Z,2.88
2023-02-02T00:26:53.904Z,2.38
2023-02-02T00:29:25.216Z,2.53
2023-02-02T00:31:54.348Z,2.53
2023-02-02T00:34:23.940Z,2.03
2023-02-02T00:36:53.578Z,1.30
2023-02-02T00:39:26.134Z,3.53
2023-02-02T00:41:54.461Z,2.47
2023-02-02T00:44:40.586Z,3.05
2023-02-02T00:47:08.906Z,2.70
2023-02-02T00:49:38.282Z,2.85
2023-02-02T00:52:06.743Z,2.30
2023-02-02T00:54:36.277Z,2.28
2023-02-02T00:57:04.765Z,1.90
2023-02-02T00:59:33.398Z,2.50
2023-02-02T01:02:01.962Z,3.05
2023-02-02T01:04:30.323Z,2.72
2023-02-02T01:06:59.085Z,1.98
2023-02-02T01:09:27.392Z,1.58
2023-02-02T01:11:57.098Z,2.58
2023-02-02T01:14:27.074Z,3.28
2023-02-02T01:16:57.582Z,2.78
2023-02-02T01:19:27.566Z,2.80
2023-02-02T01:21:55.787Z,2.22
2023-02-02T01:24:24.294Z,1.92
2023-02-02T01:26:52.566Z,2.50
2023-02-02T01:29:22.409Z,2.70
2023-02-02T01:31:51.459Z,3.03
2023-02-02T01:34:20.202Z,2.00
2023-02-02T01:36:48.425Z,2.17
2023-02-02T01:39:16.637Z,3.40
2023-02-02T01:41:44.856Z,2.35
2023-02-02T01:45:06.644Z,1.52
2023-02-02T01:47:39.870Z,2.13
2023-02-02T01:50:13.175Z,1.88
2023-02-02T01:52:44.264Z,2.28
2023-02-02T01:55:16.702Z,1.45
2023-02-02T01:57:50.364Z,1.70
2023-02-02T02:00:25.249Z,2.22
2023-02-02T02:05:29.734Z,1.42
2023-02-02T02:10:31.988Z,1.83
2023-02-02T02:13:00.740Z,3.05
2023-02-02T02:15:53.626Z,2.05
2023-02-02T02:18:39.586Z,1.95
2023-02-02T02:21:58.584Z,1.67
2023-02-02T02:25:51.019Z,2.25
2023-02-02T02:28:52.785Z,1.88
2023-02-02T02:32:02.169Z,2.33
2023-02-02T02:34:47.584Z,2.40
2023-02-02T02:37:23.912Z,1.85
2023-02-02T02:39:56.844Z,1.98
2023-02-02T02:42:29.856Z,1.48
2023-02-02T02:45:03.495Z,2.15
2023-02-02T02:47:34.173Z,2.35
2023-02-02T02:50:03.768Z,1.80
2023-02-02T02:52:32.909Z,3.45
2023-02-02T02:55:02.685Z,2.35
2023-02-02T02:57:47.349Z,2.20
2023-02-02T03:00:47.845Z,3.05
2023-02-02T03:03:46.698Z,1.60
2023-02-02T03:06:24.275Z,1.85
2023-02-02T03:08:59.866Z,1.85
2023-02-02T03:11:28.894Z,2.58
2023-02-02T03:13:57.528Z,1.90
2023-02-02T03:16:26.227Z,1.95
2023-02-02T03:18:56.429Z,2.42
2023-02-02T03:21:24.843Z,1.95
2023-02-02T03:23:53.114Z,1.58
2023-02-02T03:26:21.637Z,2.10
2023-02-02T03:28:50.709Z,2.17
2023-02-02T03:31:19.489Z,1.60
2023-02-02T03:33:48.142Z,2.58
2023-02-02T03:36:17.816Z,2.30
2023-02-02T03:38:46.385Z,2.03
2023-02-02T03:41:15.188Z,3.45
2023-02-02T03:43:43.414Z,2.63
2023-02-02T03:46:11.924Z,2.05
2023-02-02T03:48:40.773Z,2.40
2023-02-02T03:51:10.068Z,3.97
2023-02-02T03:53:39.913Z,2.22
2023-02-02T03:56:08.595Z,2.08
2023-02-02T03:58:36.856Z,2.92
2023-02-02T04:01:06.854Z,1.63
2023-02-02T04:03:35.204Z,2.38
2023-02-02T04:06:03.721Z,2.15
2023-02-02T04:08:32.240Z,1.67
2023-02-02T04:11:01.892Z,2.72
2023-02-02T04:13:30.827Z,1.98
2023-02-02T04:16:00.701Z,2.30
2023-02-02T04:18:29.891Z,2.17
2023-02-02T04:20:59.639Z,2.03
2023-02-02T04:23:29.291Z,2.58
2023-02-02T04:25:58.010Z,2.10
2023-02-02T04:28:29.013Z,1.90
2023-02-02T04:30:58.227Z,1.98
2023-02-02T04:33:28.816Z,1.80
2023-02-02T04:35:57.097Z,1.77
2023-02-02T04:38:25.321Z,2.90
2023-02-02T04:40:53.900Z,1.70
2023-02-02T04:43:22.501Z,2.95
2023-02-02T04:45:57.448Z,1.63
2023-02-02T04:48:26.202Z,1.70
2023-02-02T04:51:01.310Z,2.67
2023-02-02T04:53:29.990Z,2.67
2023-02-02T04:55:58.893Z,2.15
2023-02-02T04:58:27.604Z,1.65
2023-02-02T05:00:57.191Z,1.52
2023-02-02T05:03:25.518Z,1.67
2023-02-02T05:06:02.232Z,2.65
2023-02-02T05:08:30.865Z,2.70
2023-02-02T05:10:59.255Z,1.55
2023-02-02T05:13:27.594Z,2.00
2023-02-02T05:15:57.123Z,2.20
2023-02-02T05:18:25.584Z,1.40
2023-02-02T05:20:54.978Z,1.80
2023-02-02T05:23:23.512Z,2.75
2023-02-02T05:25:54.322Z,2.05
2023-02-02T05:28:23.390Z,2.60
2023-02-02T05:30:52.610Z,2.00
2023-02-02T05:33:22.304Z,1.63
2023-02-02T05:35:51.631Z,2.58
2023-02-02T05:38:20.119Z,2.25
2023-02-02T05:40:50.173Z,2.20
2023-02-02T05:43:19.802Z,1.55
2023-02-02T05:45:49.576Z,1.70
2023-02-02T05:48:17.891Z,1.60
2023-02-02T05:50:55.904Z,2.05
2023-02-02T05:53:24.703Z,1.98
2023-02-02T05:55:53.196Z,1.63
2023-02-02T05:58:21.780Z,1.52
2023-02-02T06:00:50.435Z,1.88
2023-02-02T06:03:18.752Z,1.90
2023-02-02T06:05:48.994Z,2.25
2023-02-02T06:08:17.570Z,1.40
2023-02-02T06:10:45.949Z,1.77
2023-02-02T06:13:14.167Z,2.60
2023-02-02T06:15:43.250Z,1.73
2023-02-02T06:18:11.791Z,2.40
2023-02-02T06:20:40.179Z,2.08
2023-02-02T06:23:09.904Z,3.35
2023-02-02T06:25:38.521Z,1.60
2023-02-02T06:28:07.725Z,2.33
2023-02-02T06:30:36.317Z,1.77
2023-02-02T06:33:04.893Z,2.58
2023-02-02T06:35:33.055Z,1.52
2023-02-02T06:38:01.571Z,3.00
2023-02-02T06:40:31.309Z,2.35
2023-02-02T06:43:00.797Z,2.08
2023-02-02T06:45:29.875Z,1.63
2023-02-02T06:48:03.482Z,2.10
2023-02-02T06:50:32.011Z,2.33
2023-02-02T06:53:00.183Z,2.05
2023-02-02T06:55:30.006Z,2.30
2023-02-02T06:57:58.850Z,2.45
2023-02-02T07:00:27.899Z,2.40
2023-02-02T07:02:56.511Z,3.35
2023-02-02T07:05:25.712Z,2.42
2023-02-02T07:07:54.801Z,2.13
2023-02-02T07:11:12.895Z,2.00
2023-02-02T07:13:12.521Z,2.50
2023-02-02T07:15:41.497Z,1.80
2023-02-02T07:18:10.492Z,1.92
2023-02-02T07:20:39.011Z,2.08
2023-02-02T07:23:07.195Z,1.98
2023-02-02T07:25:35.421Z,2.15
2023-02-02T07:28:03.625Z,2.60
2023-02-02T07:30:33.397Z,2.00
2023-02-02T07:33:01.862Z,2.75
2023-02-02T07:35:30.145Z,2.42
2023-02-02T07:37:58.330Z,2.10
2023-02-02T07:40:26.525Z,1.58
2023-02-02T07:42:54.720Z,2.00
2023-02-02T07:45:27.290Z,1.42
2023-02-02T07:48:01.819Z,2.78
2023-02-02T07:50:31.792Z,1.47
2023-02-02T07:53:01.065Z,2.85
2023-02-02T07:55:29.705Z,2.03
2023-02-02T07:57:58.991Z,2.00
2023-02-02T08:00:27.794Z,2.00
2023-02-02T08:02:56.280Z,2.72
2023-02-02T08:05:26.504Z,1.90
2023-02-02T08:07:55.172Z,1.90
2023-02-02T08:10:23.641Z,1.80
2023-02-02T08:12:52.185Z,2.05
2023-02-02T08:15:20.417Z,1.88
2023-02-02T08:17:50.024Z,1.67
2023-02-02T08:20:18.418Z,1.52
2023-02-02T08:22:47.953Z,2.45
2023-02-02T08:25:16.404Z,1.63
2023-02-02T08:27:44.616Z,2.13
2023-02-02T08:30:14.385Z,2.00
2023-02-02T08:32:42.638Z,1.65
2023-02-02T08:35:10.903Z,1.95
2023-02-02T08:37:39.398Z,1.35
2023-02-02T08:40:11.708Z,1.40
2023-02-02T08:42:40.335Z,2.13
2023-02-02T08:46:02.657Z,1.45
2023-02-02T08:48:10.935Z,1.63
2023-02-02T08:50:40.204Z,2.60
2023-02-02T08:53:08.700Z,2.40
2023-02-02T08:55:38.478Z,1.83
2023-02-02T08:58:07.024Z,1.92
2023-02-02T09:00:35.271Z,0.80
2023-02-02T09:03:03.544Z,1.48
2023-02-02T09:05:31.855Z,1.67
2023-02-02T09:08:00.202Z,1.52
2023-02-02T09:10:28.408Z,1.00
2023-02-02T09:12:57.963Z,1.67
2023-02-02T09:15:27.867Z,1.27
2023-02-02T09:17:56.275Z,1.45
2023-02-02T09:20:24.459Z,2.33
2023-02-02T09:22:52.671Z,2.08
2023-02-02T09:25:20.843Z,1.85
2023-02-02T09:27:49.045Z,1.48
2023-02-02T09:30:19.592Z,1.20
2023-02-02T09:32:52.596Z,1.80
2023-02-02T09:35:21.229Z,1.55
2023-02-02T09:37:49.402Z,1.27
2023-02-02T09:40:20.910Z,1.90
2023-02-02T09:43:26.751Z,1.30
2023-02-02T09:48:35.106Z,1.25
2023-02-02T09:51:10.620Z,1.23
2023-02-02T09:53:55.333Z,1.25
2023-02-02T09:56:28.523Z,1.10
2023-02-02T09:59:10.177Z,1.65
2023-02-02T10:01:51.063Z,1.30
2023-02-02T10:04:24.641Z,1.10
2023-02-02T10:06:57.183Z,1.17
2023-02-02T10:09:34.941Z,1.40
2023-02-02T10:12:18.254Z,1.38
2023-02-02T10:14:55.609Z,1.42
2023-02-02T10:17:39.869Z,1.58
2023-02-02T10:20:31.733Z,1.63
2023-02-02T10:23:12.527Z,1.50
2023-02-02T10:25:51.667Z,1.05
2023-02-02T10:28:22.826Z,1.50
2023-02-02T10:31:01.977Z,0.95
2023-02-02T10:33:39.005Z,1.00
2023-02-02T10:36:21.016Z,1.30
2023-02-02T10:38:57.137Z,1.02
2023-02-02T10:41:33.005Z,1.33
2023-02-02T10:44:23.426Z,1.50
2023-02-02T10:46:55.896Z,0.90
2023-02-02T10:49:32.017Z,1.13
2023-02-02T10:52:14.587Z,0.80
2023-02-02T10:55:04.462Z,1.48
2023-02-02T10:57:52.053Z,0.65
2023-02-02T11:00:26.746Z,0.85
2023-02-02T11:05:46.099Z,0.60
2023-02-02T11:08:17.817Z,0.70
2023-02-02T11:10:48.355Z,1.52
2023-02-02T11:13:26.174Z,0.70
2023-02-02T11:16:41.461Z,0.93
2023-02-02T11:19:28.734Z,0.70
2023-02-02T11:22:01.819Z,1.23
2023-02-02T11:24:36.515Z,1.40
2023-02-02T11:29:43.781Z,0.80
2023-02-02T11:32:28.358Z,0.77
2023-02-02T11:35:26.093Z,0.93
2023-02-02T11:38:10.442Z,1.23
2023-02-02T11:40:44.763Z,1.57
2023-02-02T11:43:21.025Z,0.93
2023-02-02T11:45:56.709Z,0.90
2023-02-02T11:48:31.718Z,0.50
2023-02-02T11:51:02.563Z,1.23
2023-02-02T11:53:35.097Z,1.27
2023-02-02T11:56:08.681Z,1.00
2023-02-02T11:58:46.061Z,0.82
2023-02-02T12:01:26.953Z,0.70
2023-02-02T12:03:57.548Z,1.10
2023-02-02T12:06:28.372Z,1.00
2023-02-02T12:09:02.189Z,0.77
2023-02-02T12:11:44.123Z,1.33
2023-02-02T12:14:39.708Z,0.80
2023-02-02T12:20:05.822Z,0.40
2023-02-02T12:23:16.512Z,0.90
2023-02-02T12:26:14.678Z,0.60
2023-02-02T12:29:17.086Z,0.80
2023-02-02T12:32:15.606Z,0.70
2023-02-02T12:34:58.902Z,0.70
2023-02-02T12:37:43.926Z,0.50
2023-02-02T12:40:52.761Z,1.05
2023-02-02T12:43:39.054Z,0.40
2023-02-02T12:46:22.495Z,1.00
2023-02-02T12:49:14.187Z,0.60
2023-02-02T12:52:06.349Z,0.85
2023-02-02T12:55:23.104Z,1.38
2023-02-02T12:58:07.359Z,0.75
2023-02-02T13:01:12.861Z,0.70
2023-02-02T13:04:07.547Z,0.63
2023-02-02T13:07:16.530Z,1.30
2023-02-02T13:09:53.242Z,0.80
2023-02-02T13:12:24.866Z,0.77
2023-02-02T13:14:57.594Z,0.75
2023-02-02T13:17:33.164Z,0.52
2023-02-02T13:20:06.338Z,0.70
2023-02-02T13:22:41.655Z,0.50
2023-02-02T13:25:20.872Z,0.55
2023-02-02T13:27:49.966Z,0.73
2023-02-02T13:30:31.387Z,0.63
2023-02-02T13:33:06.820Z,1.33
2023-02-02T13:35:42.834Z,0.85
2023-02-02T13:38:19.586Z,0.90
2023-02-02T13:40:48.660Z,0.73
2023-02-02T13:43:30.734Z,0.70
2023-02-02T13:46:13.933Z,0.60
2023-02-02T13:49:01.497Z,0.57
2023-02-02T13:51:55.362Z,1.00
2023-02-02T13:55:18.348Z,0.90
2023-02-02T13:58:26.620Z,0.60
2023-02-02T14:01:00.818Z,0.75
2023-02-02T14:03:38.698Z,0.50
2023-02-02T14:06:16.795Z,0.50
2023-02-02T14:08:52.506Z,0.20
2023-02-02T14:11:26.713Z,0.60
2023-02-02T14:14:17.358Z,0.50
2023-02-02T14:16:52.577Z,0.70
2023-02-02T14:19:53.119Z,0.63
2023-02-02T14:22:47.751Z,0.28
2023-02-02T14:26:05.040Z,0.50
2023-02-02T14:28:51.882Z,0.20
2023-02-02T14:31:54.093Z,0.80
2023-02-02T14:34:34.566Z,0.20
2023-02-02T14:37:31.921Z,0.75
2023-02-02T14:40:23.309Z,0.50
2023-02-02T14:43:24.935Z,0.50
2023-02-02T14:46:47.981Z,0.55
2023-02-02T14:49:25.640Z,0.25
2023-02-02T14:52:01.475Z,0.77
2023-02-02T14:54:40.978Z,0.52
2023-02-02T14:57:26.644Z,0.63
2023-02-02T14:59:56.714Z,0.50
2023-02-02T15:02:34.660Z,0.70
2023-02-02T15:05:43.771Z,1.33
2023-02-02T15:08:26.858Z,1.25
2023-02-02T15:11:27.778Z,0.75
2023-02-02T15:14:07.205Z,1.23
2023-02-02T15:16:39.428Z,0.60
2023-02-02T15:19:22.838Z,1.00
2023-02-02T15:21:55.912Z,0.63
2023-02-02T15:24:28.377Z,0.90
2023-02-02T15:27:03.045Z,1.77
2023-02-02T15:29:43.674Z,0.73
2023-02-02T15:32:20.422Z,0.73
2023-02-02T15:34:52.033Z,0.90
2023-02-02T15:37:25.530Z,0.77
2023-02-02T15:39:57.612Z,0.77
2023-02-02T15:42:54.479Z,0.65
2023-02-02T15:45:37.874Z,0.70
2023-02-02T15:48:19.580Z,0.65
2023-02-02T15:50:51.065Z,1.05
2023-02-02T15:53:24.380Z,0.75
2023-02-02T15:55:53.101Z,1.08
2023-02-02T15:58:30.403Z,0.73
2023-02-02T16:01:03.847Z,0.63
2023-02-02T16:03:44.442Z,0.60
2023-02-02T16:06:13.205Z,1.23
2023-02-02T16:08:42.322Z,0.85
2023-02-02T16:11:14.352Z,0.88
2023-02-02T16:14:01.631Z,1.15
2023-02-02T16:16:35.441Z,0.93
2023-02-02T16:19:13.011Z,0.75
2023-02-02T16:21:49.038Z,0.98
2023-02-02T16:24:23.309Z,0.88
2023-02-02T16:26:54.320Z,0.90
2023-02-02T16:29:24.293Z,0.65
2023-02-02T16:31:52.763Z,0.68
2023-02-02T16:34:46.707Z,0.82
2023-02-02T16:37:17.762Z,1.10
2023-02-02T16:39:46.542Z,0.82
2023-02-02T16:42:29.226Z,0.95
2023-02-02T16:45:00.536Z,0.90
2023-02-02T16:47:39.050Z,1.52
2023-02-02T16:50:31.877Z,1.42
2023-02-02T16:53:03.731Z,2.15
2023-02-02T16:55:49.768Z,1.20
2023-02-02T16:58:23.636Z,0.98
2023-02-02T17:01:14.016Z,1.30
2023-02-02T17:03:52.519Z,1.33
2023-02-02T17:06:38.773Z,0.98
2023-02-02T17:09:35.210Z,1.55
2023-02-02T17:12:32.154Z,0.73
2023-02-02T17:15:05.972Z,1.35
2023-02-02T17:17:35.705Z,1.85
2023-02-02T17:20:06.279Z,1.50
2023-02-02T17:22:41.019Z,1.42
2023-02-02T17:27:44.524Z,1.20
2023-02-02T17:30:18.347Z,1.67
2023-02-02T17:32:47.991Z,1.55
2023-02-02T17:35:17.686Z,1.50
2023-02-02T17:37:46.185Z,1.40
2023-02-02T17:40:15.475Z,1.80
2023-02-02T17:42:44.941Z,1.33
2023-02-02T17:45:18.670Z,1.67
2023-02-02T17:47:48.468Z,1.87
2023-02-02T17:50:17.942Z,1.77
2023-02-02T17:52:48.345Z,1.98
2023-02-02T17:55:22.938Z,1.88
2023-02-02T18:00:23.811Z,1.45
2023-02-02T18:02:59.289Z,1.15
2023-02-02T18:05:27.834Z,1.33
2023-02-02T18:07:56.173Z,0.90
2023-02-02T18:10:26.187Z,2.05
2023-02-02T18:12:54.614Z,1.40
2023-02-02T18:15:22.931Z,1.65
2023-02-02T18:17:51.564Z,1.65
2023-02-02T18:20:21.414Z,1.50
2023-02-02T18:22:51.289Z,1.70
2023-02-02T18:25:19.458Z,1.48
2023-02-02T18:27:48.967Z,1.30
2023-02-02T18:30:17.477Z,1.40
2023-02-02T18:32:45.708Z,2.15
2023-02-02T18:35:14.022Z,1.33
2023-02-02T18:37:43.600Z,1.90
2023-02-02T18:40:13.332Z,1.38
2023-02-02T18:42:41.599Z,1.65
2023-02-02T18:45:14.037Z,1.65
2023-02-02T18:47:42.270Z,1.33
2023-02-02T18:50:11.890Z,1.73
2023-02-02T18:52:40.167Z,1.70
2023-02-02T18:55:10.831Z,1.50
2023-02-02T18:57:39.085Z,1.80
2023-02-02T19:00:09.245Z,1.80
2023-02-02T19:02:37.454Z,1.60
2023-02-02T19:05:24.127Z,1.73
2023-02-02T19:07:59.050Z,1.88
2023-02-02T19:10:29.194Z,1.10
2023-02-02T19:13:04.414Z,2.38
2023-02-02T19:15:34.161Z,1.50
2023-02-02T19:18:02.759Z,2.05
2023-02-02T19:20:31.911Z,2.00
2023-02-02T19:23:08.025Z,1.70
2023-02-02T19:25:37.635Z,2.20
2023-02-02T19:28:22.413Z,3.40
2023-02-02T19:30:52.622Z,3.05
2023-02-02T19:33:21.993Z,2.45
2023-02-02T19:35:53.009Z,1.58
2023-02-02T19:38:30.529Z,2.10
2023-02-02T19:41:02.955Z,1.50
2023-02-02T19:43:33.079Z,2.22
2023-02-02T19:46:01.524Z,1.70
2023-02-02T19:48:35.627Z,1.70
2023-02-02T19:51:28.817Z,1.90
2023-02-02T19:54:01.552Z,2.90
2023-02-02T19:56:38.858Z,2.85
2023-02-02T19:59:14.245Z,2.85
2023-02-02T20:01:45.843Z,1.85
2023-02-02T20:04:15.724Z,2.10
2023-02-02T20:06:58.141Z,2.90
2023-02-02T20:09:35.188Z,2.40
2023-02-02T20:12:22.331Z,2.15
2023-02-02T20:14:50.681Z,2.50
2023-02-02T20:17:28.899Z,2.33
2023-02-02T20:19:57.541Z,2.50
2023-02-02T20:22:29.266Z,2.78
2023-02-02T20:24:58.762Z,2.03
2023-02-02T20:27:33.266Z,2.25
2023-02-02T20:30:19.759Z,2.53
2023-02-02T20:32:52.486Z,2.47
2023-02-02T20:35:34.412Z,2.55
2023-02-02T20:38:03.078Z,2.15
2023-02-02T20:40:31.905Z,2.17
2023-02-02T20:43:01.598Z,2.67
2023-02-02T20:45:29.813Z,3.15
2023-02-02T20:47:58.011Z,2.58
2023-02-02T20:50:26.515Z,2.63
2023-02-02T20:52:55.697Z,1.90
2023-02-02T20:55:23.941Z,2.60
2023-02-02T20:57:52.855Z,2.30
2023-02-02T21:00:26.985Z,2.28
2023-02-02T21:02:56.255Z,1.98
2023-02-02T21:05:25.037Z,2.37
2023-02-02T21:07:55.390Z,2.40
2023-02-02T21:10:25.496Z,1.98
2023-02-02T21:12:54.199Z,2.55
2023-02-02T21:15:25.513Z,2.25
2023-02-02T21:17:54.111Z,2.80
2023-02-02T21:20:22.701Z,1.92
2023-02-02T21:22:50.916Z,1.90
2023-02-02T21:25:19.336Z,2.53
2023-02-02T21:27:57.858Z,1.98
2023-02-02T21:30:28.119Z,1.98
2023-02-02T21:32:56.951Z,2.08
2023-02-02T21:35:26.818Z,2.10
2023-02-02T21:37:58.814Z,2.50
2023-02-02T21:40:32.767Z,2.67
2023-02-02T21:43:14.252Z,2.20
2023-02-02T21:45:45.378Z,1.88
2023-02-02T21:48:30.472Z,1.83
2023-02-02T21:53:47.107Z,2.00
2023-02-02T21:56:28.005Z,1.75
2023-02-02T21:59:00.201Z,2.47
2023-02-02T22:01:38.183Z,2.35
2023-02-02T22:04:24.604Z,1.83
2023-02-02T22:06:55.065Z,2.33
2023-02-02T22:09:26.986Z,2.22
2023-02-02T22:11:59.075Z,1.88
2023-02-02T22:14:36.962Z,2.10
2023-02-02T22:17:21.662Z,2.65
2023-02-02T22:19:51.053Z,3.17
2023-02-02T22:22:22.508Z,2.70
2023-02-02T22:24:59.730Z,2.80
2023-02-02T22:27:40.818Z,2.63
2023-02-02T22:30:22.491Z,2.67
2023-02-02T22:32:52.336Z,2.60
2023-02-02T22:35:21.023Z,2.13
2023-02-02T22:37:49.607Z,2.33
2023-02-02T22:40:22.345Z,2.40
2023-02-02T22:42:50.963Z,2.15
2023-02-02T22:45:19.513Z,1.92
2023-02-02T22:47:48.715Z,1.77
2023-02-02T22:50:20.800Z,3.42
2023-02-02T22:52:49.626Z,3.05
2023-02-02T22:55:18.566Z,2.67
2023-02-02T22:57:47.436Z,2.47
2023-02-02T23:00:19.171Z,2.85
2023-02-02T23:02:47.786Z,3.22
2023-02-02T23:05:19.478Z,2.97
2023-02-02T23:07:48.938Z,2.70
2023-02-02T23:10:20.384Z,3.35
2023-02-02T23:12:49.656Z,3.25
2023-02-02T23:15:19.225Z,3.15
2023-02-02T23:17:47.917Z,3.30
2023-02-02T23:20:18.681Z,2.83
2023-02-02T23:22:47.312Z,3.20
2023-02-02T23:25:16.083Z,3.35
2023-02-02T23:27:44.435Z,3.03
2023-02-02T23:30:15.193Z,3.15
2023-02-02T23:32:43.883Z,2.90
2023-02-02T23:35:12.073Z,3.40
2023-02-02T23:37:41.651Z,3.80
2023-02-02T23:40:12.246Z,3.33
2023-02-02T23:42:40.499Z,3.33
2023-02-02T23:45:10.088Z,3.05
2023-02-02T23:47:38.882Z,2.80
2023-02-02T23:50:09.431Z,2.55
2023-02-02T23:52:39.049Z,2.63
2023-02-02T23:55:10.547Z,2.63
2023-02-02T23:57:39.138Z,2.90
